Darstellungsparameter: Aktuell verwendete Einstellungen:
Skalierung der Graphiken ... ?
xyx+y,   Skalierungsfaktor:      Skalierung: Modus: x, Faktor: 1
Darstellungszeitraum ... ?
Vom - - bis: - -   Zeitraum: 21.11.2019 - 21.11.2019
Min/Max/Avg-Anzeige ... ?
Zeige MMA aktuell
Zeige MMA Monat
Zeige MMA alles
Zeige --A aktuell
Zeige --A Monat
Zeige --A alles
Keine MMA-Anzeige
MMA:
Average (ber die Originaldaten)
MMA-Basis: 21.11.2019 - 21.11.2019
Quicknavigation für Darstellung... ?
Tage:      1T, 2T, 3T, 5T -1T -2T -3T -5T +1T +2T +3T +5T
Wochen: 1W, 2W, 3W -1W -2W -3W +1W +2W +3W
Monate: 1M, 3M, 6M -1M -3M -6M +1M +3M +6M
Jahre:    1J, 3J, 5J, 10J -1J -3J -5J -10J +1J +3J +5J +10J
Nutze für die Darstellung ... ?
Originaldaten oder Mittelwerte auf ...
Stundenbasis Tagesbasis Wochenbasis
Monatsbasis Jahresbasis      Datenbasis: Original-Daten
Darstellen als:
Statistik (Auto) Statistik J:M      Darstellung:
Zur Graphik,    zurück zur Übersicht aller Sensoren.
 
Tabellarische Datenbersicht: ?
 
Sensor: Nr:Datum:Temp:Abs-Feuchte:Windchill:Wind:
Aussen-T/F 1 21-11-2019 00:00:00 -0.3 C 4.6 g/m*3 -0.3 C 0 km/h
2 21-11-2019 00:05:00 -0.3 C 4.6 g/m*3 -0.3 C 0 km/h
3 21-11-2019 00:10:00 -0.3 C 4.6 g/m*3 -0.3 C 0 km/h
4 21-11-2019 00:15:00 -0.4 C 4.57 g/m*3 -0.4 C 0 km/h
5 21-11-2019 00:20:00 -0.5 C 4.49 g/m*3 -0.5 C 0 km/h
6 21-11-2019 00:25:00 -0.6 C 4.46 g/m*3 -0.6 C 0 km/h
7 21-11-2019 00:30:00 -0.7 C 4.43 g/m*3 -0.7 C 0 km/h
8 21-11-2019 00:35:00 -0.7 C 4.43 g/m*3 -0.7 C 0 km/h
9 21-11-2019 00:40:00 -0.8 C 4.4 g/m*3 -0.8 C 0 km/h
10 21-11-2019 00:45:00 -0.8 C 4.4 g/m*3 -0.8 C 0 km/h
11 21-11-2019 00:50:00 -0.9 C 4.37 g/m*3 -0.9 C 0 km/h
12 21-11-2019 00:55:00 -0.9 C 4.37 g/m*3 -0.9 C 0 km/h
13 21-11-2019 01:00:00 -1 C 4.34 g/m*3 -1 C 0 km/h
14 21-11-2019 01:05:00 -1.1 C 4.31 g/m*3 -1.1 C 0 km/h
15 21-11-2019 01:10:00 -1.1 C 4.31 g/m*3 -1.1 C 0 km/h
16 21-11-2019 01:15:00 -1.1 C 4.31 g/m*3 -1.1 C 0 km/h
17 21-11-2019 01:20:00 -1.1 C 4.31 g/m*3 -1.1 C 0 km/h
18 21-11-2019 01:25:00 -1.2 C 4.28 g/m*3 -1.2 C 0 km/h
19 21-11-2019 01:30:00 -1.2 C 4.28 g/m*3 -1.2 C 0 km/h
20 21-11-2019 01:35:00 -1.2 C 4.28 g/m*3 -1.2 C 0 km/h
21 21-11-2019 01:40:00 -1.3 C 4.25 g/m*3 -1.3 C 0 km/h
22 21-11-2019 01:45:00 -1.3 C 4.25 g/m*3 -1.3 C 0 km/h
23 21-11-2019 01:50:00 -1.3 C 4.25 g/m*3 -1.3 C 0 km/h
24 21-11-2019 01:55:00 -1.4 C 4.22 g/m*3 -1.4 C 0 km/h
25 21-11-2019 02:00:00 -1.4 C 4.22 g/m*3 -1.4 C 0 km/h
Sensor: Nr:Datum:Temp:Abs-Feuchte:Windchill:Wind:
Aussen-T/F 26 21-11-2019 02:05:00 -1.4 C 4.22 g/m*3 -1.4 C 0 km/h
27 21-11-2019 02:10:00 -1.5 C 4.19 g/m*3 -1.5 C 0 km/h
28 21-11-2019 02:15:00 -1.5 C 4.19 g/m*3 -1.5 C 0 km/h
29 21-11-2019 02:20:00 -1.5 C 4.19 g/m*3 -1.5 C 0 km/h
30 21-11-2019 02:25:00 -1.4 C 4.22 g/m*3 -1.4 C 0 km/h
31 21-11-2019 02:30:00 -1.4 C 4.22 g/m*3 -1.4 C 0 km/h
32 21-11-2019 02:35:00 -1.4 C 4.22 g/m*3 -1.4 C 0 km/h
33 21-11-2019 02:40:00 -1.4 C 4.22 g/m*3 -1.4 C 0 km/h
34 21-11-2019 02:45:00 -1.3 C 4.25 g/m*3 -1.3 C 0 km/h
35 21-11-2019 02:50:00 -1.3 C 4.25 g/m*3 -1.3 C 0 km/h
36 21-11-2019 02:55:00 -1.3 C 4.29 g/m*3 -1.3 C 0 km/h
37 21-11-2019 03:00:00 -1.3 C 4.29 g/m*3 -1.3 C 0 km/h
38 21-11-2019 03:05:00 -1.3 C 4.29 g/m*3 -1.3 C 0 km/h
39 21-11-2019 03:10:00 -1.3 C 4.29 g/m*3 -1.3 C 0 km/h
40 21-11-2019 03:15:00 -1.3 C 4.29 g/m*3 -1.3 C 0 km/h
41 21-11-2019 03:20:00 -1.3 C 4.25 g/m*3 -1.3 C 0 km/h
42 21-11-2019 03:25:00 -1.3 C 4.25 g/m*3 -1.3 C 0 km/h
43 21-11-2019 03:30:00 -1.3 C 4.29 g/m*3 -1.3 C 0 km/h
44 21-11-2019 03:35:00 -1.3 C 4.29 g/m*3 -1.3 C 0 km/h
45 21-11-2019 03:40:00 -1.2 C 4.32 g/m*3 -1.2 C 0 km/h
46 21-11-2019 03:45:00 -1.1 C 4.35 g/m*3 -1.1 C 0 km/h
47 21-11-2019 03:50:00 -1.1 C 4.35 g/m*3 -1.1 C 0 km/h
48 21-11-2019 03:55:00 -1 C 4.38 g/m*3 -1 C 0 km/h
49 21-11-2019 04:00:00 -0.9 C 4.42 g/m*3 -0.9 C 0 km/h
50 21-11-2019 04:05:00 -0.8 C 4.45 g/m*3 -0.8 C 0 km/h
Sensor: Nr:Datum:Temp:Abs-Feuchte:Windchill:Wind:
Aussen-T/F 51 21-11-2019 04:10:00 -0.8 C 4.45 g/m*3 -0.8 C 0 km/h
52 21-11-2019 04:15:00 -0.6 C 4.51 g/m*3 -0.6 C 0 km/h
53 21-11-2019 04:20:00 -0.5 C 4.54 g/m*3 -0.5 C 0 km/h
54 21-11-2019 04:25:00 -0.4 C 4.57 g/m*3 -0.4 C 0 km/h
55 21-11-2019 04:30:00 -0.3 C 4.6 g/m*3 -0.3 C 0 km/h
56 21-11-2019 04:35:00 -0.2 C 4.64 g/m*3 -0.2 C 0 km/h
57 21-11-2019 04:40:00 -0.1 C 4.67 g/m*3 -0.1 C 0 km/h
58 21-11-2019 04:45:00 -0.1 C 4.67 g/m*3 -0.1 C 0 km/h
59 21-11-2019 04:50:00 -0.1 C 4.67 g/m*3 -0.1 C 0 km/h
60 21-11-2019 04:55:00 -0.1 C 4.67 g/m*3 -0.1 C 0 km/h
61 21-11-2019 05:00:00 -0.1 C 4.67 g/m*3 -0.1 C 0 km/h
62 21-11-2019 05:05:00 -0.1 C 4.67 g/m*3 -0.1 C 0 km/h
63 21-11-2019 05:10:00 -0.1 C 4.67 g/m*3 -0.1 C 0 km/h
64 21-11-2019 05:15:00 0.1 C 4.73 g/m*3 0.1 C 0 km/h
65 21-11-2019 05:20:00 0.1 C 4.73 g/m*3 0.1 C 0 km/h
66 21-11-2019 05:25:00 0.2 C 4.77 g/m*3 0.2 C 0 km/h
67 21-11-2019 05:30:00 0.2 C 4.77 g/m*3 0.2 C 0 km/h
68 21-11-2019 05:35:00 0.3 C 4.8 g/m*3 0.3 C 0 km/h
69 21-11-2019 05:40:00 0.3 C 4.8 g/m*3 0.3 C 0 km/h
70 21-11-2019 05:45:00 0.3 C 4.8 g/m*3 0.3 C 0 km/h
71 21-11-2019 05:50:00 0.4 C 4.83 g/m*3 0.4 C 0 km/h
72 21-11-2019 05:55:00 0.4 C 4.83 g/m*3 0.4 C 0 km/h
73 21-11-2019 06:00:00 0.5 C 4.86 g/m*3 0.5 C 0 km/h
74 21-11-2019 06:05:00 0.6 C 4.9 g/m*3 0.6 C 0 km/h
75 21-11-2019 06:10:00 0.6 C 4.9 g/m*3 0.6 C 0 km/h
Sensor: Nr:Datum:Temp:Abs-Feuchte:Windchill:Wind:
Aussen-T/F 76 21-11-2019 06:15:00 0.6 C 4.9 g/m*3 0.6 C 0 km/h
77 21-11-2019 06:20:00 0.6 C 4.9 g/m*3 0.6 C 0 km/h
78 21-11-2019 06:25:00 0.7 C 4.93 g/m*3 0.7 C 0 km/h
79 21-11-2019 06:30:00 0.7 C 4.93 g/m*3 0.7 C 0 km/h
80 21-11-2019 06:35:00 0.7 C 4.93 g/m*3 0.7 C 0 km/h
81 21-11-2019 06:40:00 0.7 C 4.93 g/m*3 0.7 C 0 km/h
82 21-11-2019 06:45:00 0.7 C 4.93 g/m*3 0.7 C 0 km/h
83 21-11-2019 06:50:00 0.7 C 4.93 g/m*3 0.7 C 1.6 km/h
84 21-11-2019 06:55:00 0.7 C 4.93 g/m*3 0.7 C 0 km/h
85 21-11-2019 07:00:00 0.7 C 4.93 g/m*3 0.7 C 0 km/h
86 21-11-2019 07:05:00 0.7 C 4.93 g/m*3 0.7 C 0 km/h
87 21-11-2019 07:10:00 0.7 C 4.93 g/m*3 0.7 C 0 km/h
88 21-11-2019 07:15:00 0.8 C 4.97 g/m*3 0.8 C 0 km/h
89 21-11-2019 07:20:00 0.8 C 4.97 g/m*3 0.8 C 0 km/h
90 21-11-2019 07:25:00 0.8 C 4.97 g/m*3 0.8 C 0 km/h
91 21-11-2019 07:30:00 0.8 C 4.97 g/m*3 0.8 C 0 km/h
92 21-11-2019 07:35:00 0.8 C 4.97 g/m*3 0.8 C 0 km/h
93 21-11-2019 07:40:00 0.8 C 4.97 g/m*3 0.8 C 0 km/h
94 21-11-2019 07:45:00 0.8 C 4.97 g/m*3 0.8 C 0 km/h
95 21-11-2019 07:50:00 0.8 C 4.97 g/m*3 0.8 C 0 km/h
96 21-11-2019 07:55:00 0.8 C 4.97 g/m*3 0.8 C 0 km/h
97 21-11-2019 08:00:00 0.8 C 4.97 g/m*3 0.8 C 0 km/h
98 21-11-2019 08:05:00 0.8 C 4.97 g/m*3 0.8 C 0 km/h
99 21-11-2019 08:10:00 0.8 C 4.97 g/m*3 0.8 C 0 km/h
100 21-11-2019 08:15:00 0.8 C 4.97 g/m*3 0.8 C 0 km/h
Sensor: Nr:Datum:Temp:Abs-Feuchte:Windchill:Wind:
Aussen-T/F 101 21-11-2019 08:20:00 0.8 C 4.97 g/m*3 0.8 C 0 km/h
102 21-11-2019 08:25:00 0.8 C 4.97 g/m*3 0.8 C 0 km/h
103 21-11-2019 08:30:00 0.8 C 4.97 g/m*3 0.8 C 0 km/h
104 21-11-2019 08:35:00 0.9 C 5 g/m*3 0.9 C 0 km/h
105 21-11-2019 08:40:00 0.9 C 5 g/m*3 0.9 C 0 km/h
106 21-11-2019 08:45:00 0.9 C 5 g/m*3 0.9 C 1.6 km/h
107 21-11-2019 08:50:00 0.9 C 5 g/m*3 0.9 C 0 km/h
108 21-11-2019 08:55:00 1 C 5.03 g/m*3 1 C 3.2 km/h
109 21-11-2019 09:00:00 1 C 5.03 g/m*3 1 C 0 km/h
110 21-11-2019 09:05:00 1.1 C 5.07 g/m*3 1.1 C 0 km/h
111 21-11-2019 09:10:00 1.1 C 5.07 g/m*3 1.1 C 0 km/h
112 21-11-2019 09:15:00 1.1 C 5.07 g/m*3 1.1 C 1.6 km/h
113 21-11-2019 09:20:00 1.2 C 5.1 g/m*3 1.2 C 0 km/h
114 21-11-2019 09:25:00 1.2 C 5.1 g/m*3 1.2 C 1.6 km/h
115 21-11-2019 09:30:00 1.2 C 5.1 g/m*3 1.2 C 0 km/h
116 21-11-2019 09:35:00 1.2 C 5.1 g/m*3 1.2 C 0 km/h
117 21-11-2019 09:40:00 1.3 C 5.14 g/m*3 1.3 C 0 km/h
118 21-11-2019 09:45:00 1.4 C 5.17 g/m*3 1.4 C 0 km/h
119 21-11-2019 09:50:00 1.4 C 5.17 g/m*3 1.4 C 0 km/h
120 21-11-2019 09:55:00 1.5 C 5.21 g/m*3 1.5 C 0 km/h
121 21-11-2019 10:00:00 1.6 C 5.25 g/m*3 1.6 C 0 km/h
122 21-11-2019 10:05:00 1.6 C 5.25 g/m*3 1.6 C 0 km/h
123 21-11-2019 10:10:00 1.6 C 5.25 g/m*3 1.6 C 0 km/h
124 21-11-2019 10:15:00 1.7 C 5.28 g/m*3 1.7 C 0 km/h
125 21-11-2019 10:20:00 1.7 C 5.28 g/m*3 1.7 C 0 km/h
Sensor: Nr:Datum:Temp:Abs-Feuchte:Windchill:Wind:
Aussen-T/F 126 21-11-2019 10:25:00 1.7 C 5.28 g/m*3 1.7 C 0 km/h
127 21-11-2019 10:30:00 1.8 C 5.32 g/m*3 1.8 C 0 km/h
128 21-11-2019 10:35:00 1.8 C 5.32 g/m*3 1.8 C 0 km/h
129 21-11-2019 10:40:00 1.9 C 5.35 g/m*3 1.9 C 0 km/h
130 21-11-2019 10:45:00 1.9 C 5.35 g/m*3 1.9 C 0 km/h
131 21-11-2019 10:50:00 2 C 5.39 g/m*3 2 C 0 km/h
132 21-11-2019 10:55:00 2 C 5.39 g/m*3 2 C 0 km/h
133 21-11-2019 11:00:00 2.1 C 5.43 g/m*3 2.1 C 0 km/h
134 21-11-2019 11:05:00 2.1 C 5.43 g/m*3 2.1 C 0 km/h
135 21-11-2019 11:10:00 2.2 C 5.46 g/m*3 2.2 C 0 km/h
136 21-11-2019 11:15:00 2.3 C 5.5 g/m*3 2.3 C 0 km/h
137 21-11-2019 11:20:00 2.5 C 5.58 g/m*3 2.5 C 0 km/h
138 21-11-2019 11:25:00 2.6 C 5.61 g/m*3 2.6 C 0 km/h
139 21-11-2019 11:30:00 2.7 C 5.65 g/m*3 2.7 C 0 km/h
140 21-11-2019 11:35:00 2.7 C 5.65 g/m*3 2.7 C 1.6 km/h
141 21-11-2019 11:40:00 2.7 C 5.65 g/m*3 2.7 C 1.6 km/h
142 21-11-2019 11:45:00 2.8 C 5.69 g/m*3 2.8 C 0 km/h
143 21-11-2019 11:50:00 2.8 C 5.69 g/m*3 2.8 C 1.6 km/h
144 21-11-2019 11:55:00 2.9 C 5.73 g/m*3 2.9 C 1.6 km/h
145 21-11-2019 12:00:00 2.9 C 5.73 g/m*3 2.9 C 1.6 km/h
146 21-11-2019 12:05:00 2.9 C 5.67 g/m*3 2.9 C 3.2 km/h
147 21-11-2019 12:10:00 2.8 C 5.63 g/m*3 2.8 C 1.6 km/h
148 21-11-2019 12:15:00 2.8 C 5.63 g/m*3 2.8 C 0 km/h
149 21-11-2019 12:20:00 2.8 C 5.63 g/m*3 2.8 C 0 km/h
150 21-11-2019 12:25:00 2.8 C 5.63 g/m*3 2.8 C 0 km/h
Sensor: Nr:Datum:Temp:Abs-Feuchte:Windchill:Wind:
Aussen-T/F 151 21-11-2019 12:30:00 2.8 C 5.63 g/m*3 2.8 C 0 km/h
152 21-11-2019 12:35:00 2.9 C 5.67 g/m*3 2.9 C 1.6 km/h
153 21-11-2019 12:40:00 3 C 5.71 g/m*3 3 C 0 km/h
154 21-11-2019 12:45:00 3.1 C 5.75 g/m*3 3.1 C 3.2 km/h
155 21-11-2019 12:50:00 3.1 C 5.75 g/m*3 3.1 C 3.2 km/h
156 21-11-2019 12:55:00 3.2 C 5.79 g/m*3 3.2 C 4.8 km/h
157 21-11-2019 13:00:00 3.2 C 5.79 g/m*3 3.2 C 3.2 km/h
158 21-11-2019 13:05:00 3.2 C 5.79 g/m*3 3.2 C 3.2 km/h
159 21-11-2019 13:10:00 3.3 C 5.82 g/m*3 3.3 C 1.6 km/h
160 21-11-2019 13:15:00 3.4 C 5.86 g/m*3 3.4 C 3.2 km/h
161 21-11-2019 13:20:00 3.5 C 5.9 g/m*3 3.5 C 1.6 km/h
162 21-11-2019 13:25:00 3.6 C 5.94 g/m*3 3.6 C 1.6 km/h
163 21-11-2019 13:30:00 3.7 C 5.98 g/m*3 3.7 C 1.6 km/h
164 21-11-2019 13:35:00 3.8 C 6.02 g/m*3 3.8 C 1.6 km/h
165 21-11-2019 13:40:00 3.8 C 5.96 g/m*3 3.8 C 0 km/h
166 21-11-2019 13:45:00 3.8 C 5.96 g/m*3 3.8 C 1.6 km/h
167 21-11-2019 13:50:00 3.9 C 6 g/m*3 3.9 C 0 km/h
168 21-11-2019 13:55:00 4 C 6.04 g/m*3 4 C 0 km/h
169 21-11-2019 14:00:00 4.1 C 6.08 g/m*3 4.1 C 1.6 km/h
170 21-11-2019 14:05:00 4.1 C 6.02 g/m*3 4.1 C 1.6 km/h
171 21-11-2019 14:10:00 4.1 C 6.08 g/m*3 4.1 C 1.6 km/h
172 21-11-2019 14:15:00 4.2 C 6.12 g/m*3 4.2 C 0 km/h
173 21-11-2019 14:20:00 4.3 C 6.16 g/m*3 4.3 C 0 km/h
174 21-11-2019 14:25:00 4.3 C 6.1 g/m*3 4.3 C 0 km/h
175 21-11-2019 14:30:00 4.4 C 6.14 g/m*3 4.4 C 1.6 km/h
Sensor: Nr:Datum:Temp:Abs-Feuchte:Windchill:Wind:
Aussen-T/F 176 21-11-2019 14:35:00 4.4 C 6.14 g/m*3 4.4 C 0 km/h
177 21-11-2019 14:40:00 4.5 C 6.18 g/m*3 4.5 C 0 km/h
178 21-11-2019 14:45:00 4.5 C 6.18 g/m*3 4.5 C 0 km/h
179 21-11-2019 14:50:00 4.5 C 6.18 g/m*3 4.5 C 0 km/h
180 21-11-2019 14:55:00 4.6 C 6.22 g/m*3 4.6 C 0 km/h
181 21-11-2019 15:00:00 4.6 C 6.22 g/m*3 4.6 C 0 km/h
182 21-11-2019 15:05:00 4.6 C 6.22 g/m*3 4.6 C 0 km/h
183 21-11-2019 15:10:00 4.7 C 6.26 g/m*3 4.7 C 0 km/h
184 21-11-2019 15:15:00 4.7 C 6.26 g/m*3 4.7 C 0 km/h
185 21-11-2019 15:20:00 4.8 C 6.3 g/m*3 4.8 C 0 km/h
186 21-11-2019 15:25:00 4.8 C 6.3 g/m*3 4.8 C 0 km/h
187 21-11-2019 15:30:00 4.8 C 6.24 g/m*3 4.8 C 0 km/h
188 21-11-2019 15:35:00 4.8 C 6.3 g/m*3 4.8 C 0 km/h
189 21-11-2019 15:40:00 4.9 C 6.35 g/m*3 4.9 C 0 km/h
190 21-11-2019 15:45:00 4.9 C 6.35 g/m*3 4.9 C 0 km/h
191 21-11-2019 15:50:00 4.9 C 6.35 g/m*3 4.9 C 0 km/h
192 21-11-2019 15:55:00 4.9 C 6.35 g/m*3 4.9 C 0 km/h
193 21-11-2019 16:00:00 5 C 6.39 g/m*3 5 C 0 km/h
194 21-11-2019 16:05:00 5.1 C 6.43 g/m*3 5.1 C 0 km/h
195 21-11-2019 16:10:00 5.1 C 6.43 g/m*3 5.1 C 0 km/h
196 21-11-2019 16:15:00 5.1 C 6.43 g/m*3 5.1 C 0 km/h
197 21-11-2019 16:20:00 5.1 C 6.43 g/m*3 5.1 C 0 km/h
198 21-11-2019 16:25:00 5 C 6.39 g/m*3 5 C 0 km/h
199 21-11-2019 16:30:00 5 C 6.39 g/m*3 5 C 0 km/h
200 21-11-2019 16:35:00 5 C 6.39 g/m*3 5 C 0 km/h
Sensor: Nr:Datum:Temp:Abs-Feuchte:Windchill:Wind:
Aussen-T/F 201 21-11-2019 16:40:00 4.9 C 6.35 g/m*3 4.9 C 0 km/h
202 21-11-2019 16:45:00 4.8 C 6.3 g/m*3 4.8 C 0 km/h
203 21-11-2019 16:50:00 4.8 C 6.3 g/m*3 4.8 C 0 km/h
204 21-11-2019 16:55:00 4.8 C 6.3 g/m*3 4.8 C 0 km/h
205 21-11-2019 17:00:00 4.7 C 6.26 g/m*3 4.7 C 0 km/h
206 21-11-2019 17:05:00 4.7 C 6.26 g/m*3 4.7 C 0 km/h
207 21-11-2019 17:10:00 4.6 C 6.29 g/m*3 4.6 C 0 km/h
208 21-11-2019 17:15:00 4.6 C 6.29 g/m*3 4.6 C 0 km/h
209 21-11-2019 17:20:00 4.6 C 6.29 g/m*3 4.6 C 0 km/h
210 21-11-2019 17:25:00 4.5 C 6.24 g/m*3 4.5 C 0 km/h
211 21-11-2019 17:30:00 4.4 C 6.2 g/m*3 4.4 C 0 km/h
212 21-11-2019 17:35:00 4.4 C 6.2 g/m*3 4.4 C 0 km/h
213 21-11-2019 17:40:00 4.4 C 6.2 g/m*3 4.4 C 0 km/h
214 21-11-2019 17:45:00 4.3 C 6.16 g/m*3 4.3 C 0 km/h
215 21-11-2019 17:50:00 4.3 C 6.16 g/m*3 4.3 C 0 km/h
216 21-11-2019 17:55:00 4.3 C 6.16 g/m*3 4.3 C 0 km/h
217 21-11-2019 18:00:00 4.2 C 6.12 g/m*3 4.2 C 0 km/h
218 21-11-2019 18:05:00 4.2 C 6.12 g/m*3 4.2 C 0 km/h
219 21-11-2019 18:10:00 4.2 C 6.12 g/m*3 4.2 C 0 km/h
220 21-11-2019 18:15:00 4.2 C 6.12 g/m*3 4.2 C 0 km/h
221 21-11-2019 18:20:00 4.2 C 6.12 g/m*3 4.2 C 0 km/h
222 21-11-2019 18:25:00 4.2 C 6.12 g/m*3 4.2 C 0 km/h
223 21-11-2019 18:30:00 4.2 C 6.12 g/m*3 4.2 C 0 km/h
224 21-11-2019 18:35:00 4.2 C 6.12 g/m*3 4.2 C 0 km/h
225 21-11-2019 18:40:00 4.2 C 6.12 g/m*3 4.2 C 0 km/h
Sensor: Nr:Datum:Temp:Abs-Feuchte:Windchill:Wind:
Aussen-T/F 226 21-11-2019 18:45:00 4.2 C 6.12 g/m*3 4.2 C 0 km/h
227 21-11-2019 18:50:00 4.1 C 6.08 g/m*3 4.1 C 0 km/h
228 21-11-2019 18:55:00 4.1 C 6.14 g/m*3 4.1 C 0 km/h
229 21-11-2019 19:00:00 4.1 C 6.14 g/m*3 4.1 C 0 km/h
230 21-11-2019 19:05:00 4.1 C 6.08 g/m*3 4.1 C 0 km/h
231 21-11-2019 19:10:00 4.1 C 6.08 g/m*3 4.1 C 0 km/h
232 21-11-2019 19:15:00 4.1 C 6.08 g/m*3 4.1 C 0 km/h
233 21-11-2019 19:20:00 4.1 C 6.08 g/m*3 4.1 C 0 km/h
234 21-11-2019 19:25:00 4 C 6.04 g/m*3 4 C 0 km/h
235 21-11-2019 19:30:00 3.9 C 6 g/m*3 3.9 C 0 km/h
236 21-11-2019 19:35:00 3.9 C 6.06 g/m*3 3.9 C 0 km/h
237 21-11-2019 19:40:00 3.9 C 6.06 g/m*3 3.9 C 0 km/h
238 21-11-2019 19:45:00 3.9 C 6.06 g/m*3 3.9 C 0 km/h
239 21-11-2019 19:50:00 3.8 C 6.02 g/m*3 3.8 C 0 km/h
240 21-11-2019 19:55:00 3.8 C 6.02 g/m*3 3.8 C 0 km/h
241 21-11-2019 20:00:00 3.7 C 5.92 g/m*3 3.7 C 0 km/h
242 21-11-2019 20:05:00 3.6 C 5.88 g/m*3 3.6 C 0 km/h
243 21-11-2019 20:10:00 3.4 C 5.8 g/m*3 3.4 C 0 km/h
244 21-11-2019 20:15:00 3.3 C 5.76 g/m*3 3.3 C 0 km/h
245 21-11-2019 20:20:00 3.2 C 5.72 g/m*3 3.2 C 0 km/h
246 21-11-2019 20:25:00 3.1 C 5.69 g/m*3 3.1 C 1.6 km/h
247 21-11-2019 20:30:00 3 C 5.65 g/m*3 3 C 1.6 km/h
248 21-11-2019 20:35:00 2.9 C 5.61 g/m*3 2.9 C 0 km/h
249 21-11-2019 20:40:00 2.9 C 5.67 g/m*3 2.9 C 0 km/h
250 21-11-2019 20:45:00 2.8 C 5.57 g/m*3 2.8 C 0 km/h
Sensor: Nr:Datum:Temp:Abs-Feuchte:Windchill:Wind:
Aussen-T/F 251 21-11-2019 20:50:00 2.7 C 5.54 g/m*3 2.7 C 1.6 km/h
252 21-11-2019 20:55:00 2.7 C 5.59 g/m*3 2.7 C 0 km/h
253 21-11-2019 21:00:00 2.6 C 5.56 g/m*3 2.6 C 0 km/h
254 21-11-2019 21:05:00 2.5 C 5.52 g/m*3 2.5 C 1.6 km/h
255 21-11-2019 21:10:00 2.5 C 5.52 g/m*3 2.5 C 1.6 km/h
256 21-11-2019 21:15:00 2.4 C 5.48 g/m*3 2.4 C 0 km/h
257 21-11-2019 21:20:00 2.4 C 5.48 g/m*3 2.4 C 0 km/h
258 21-11-2019 21:25:00 2.3 C 5.44 g/m*3 2.3 C 0 km/h
259 21-11-2019 21:30:00 2.3 C 5.44 g/m*3 2.3 C 0 km/h
260 21-11-2019 21:35:00 2.2 C 5.41 g/m*3 2.2 C 1.6 km/h
261 21-11-2019 21:40:00 2.2 C 5.41 g/m*3 2.2 C 0 km/h
262 21-11-2019 21:45:00 2.3 C 5.44 g/m*3 2.3 C 0 km/h
263 21-11-2019 21:50:00 2.3 C 5.44 g/m*3 2.3 C 0 km/h
264 21-11-2019 21:55:00 2.2 C 5.41 g/m*3 2.2 C 0 km/h
265 21-11-2019 22:00:00 2.2 C 5.41 g/m*3 2.2 C 0 km/h
266 21-11-2019 22:05:00 2.1 C 5.37 g/m*3 2.1 C 0 km/h
267 21-11-2019 22:10:00 2 C 5.33 g/m*3 2 C 0 km/h
268 21-11-2019 22:15:00 1.9 C 5.3 g/m*3 1.9 C 1.6 km/h
269 21-11-2019 22:20:00 1.9 C 5.3 g/m*3 1.9 C 0 km/h
270 21-11-2019 22:25:00 1.8 C 5.26 g/m*3 1.8 C 0 km/h
271 21-11-2019 22:30:00 1.8 C 5.26 g/m*3 1.8 C 0 km/h
272 21-11-2019 22:35:00 1.8 C 5.26 g/m*3 1.8 C 0 km/h
273 21-11-2019 22:40:00 1.8 C 5.26 g/m*3 1.8 C 0 km/h
274 21-11-2019 22:45:00 1.8 C 5.26 g/m*3 1.8 C 0 km/h
275 21-11-2019 22:50:00 1.8 C 5.26 g/m*3 1.8 C 0 km/h
Sensor: Nr:Datum:Temp:Abs-Feuchte:Windchill:Wind:
Aussen-T/F 276 21-11-2019 22:55:00 1.8 C 5.26 g/m*3 1.8 C 0 km/h
277 21-11-2019 23:00:00 1.8 C 5.32 g/m*3 1.8 C 0 km/h
278 21-11-2019 23:05:00 1.9 C 5.35 g/m*3 1.9 C 1.6 km/h
279 21-11-2019 23:10:00 1.9 C 5.35 g/m*3 1.9 C 0 km/h
280 21-11-2019 23:15:00 1.9 C 5.35 g/m*3 1.9 C 0 km/h
281 21-11-2019 23:20:00 2 C 5.39 g/m*3 2 C 0 km/h
282 21-11-2019 23:25:00 2.1 C 5.43 g/m*3 2.1 C 0 km/h
283 21-11-2019 23:30:00 2.1 C 5.43 g/m*3 2.1 C 0 km/h
284 21-11-2019 23:35:00 2.2 C 5.46 g/m*3 2.2 C 0 km/h
285 21-11-2019 23:40:00 2.1 C 5.43 g/m*3 2.1 C 0 km/h
286 21-11-2019 23:45:00 2.2 C 5.46 g/m*3 2.2 C 0 km/h
287 21-11-2019 23:50:00 2.2 C 5.46 g/m*3 2.2 C 0 km/h
288 21-11-2019 23:55:00 2.2 C 5.46 g/m*3 2.2 C 0 km/h

Legende:
   Min
   Max


Maximal/Minimal-Werte vom 21.11.2019 - 21.11.2019

Sensor Min Max Avg
Temp
(Aussen-T/F)
-1.5 °C
21-11-2019  02:10:00
5.1 °C
21-11-2019  16:05:00
1.91 °C
Abs-Feuchte
(Aussen-T/F)
4.19 g/m*3
21-11-2019  02:10:00
6.43 g/m*3
21-11-2019  16:05:00
5.32 g/m*3
Windchill
(Aussen-T/F)
-1.5 C
21-11-2019  02:10:00
5.1 C
21-11-2019  16:05:00
1.9 C

Die Daten stammen von einer Davis Vantage Pro 2 Wetter-Station und werden unter Linux mit der Software wview2wettercgi und aufbereitet. Alle Angaben erfolgen ohne Gewähr für ihre Vollständigkeit oder Richtigkeit.
Kontakt: Rainer Krienke krienke@uni-koblenz.de . Meine Webseiten an der Uni Koblenz oder privat.
Version: $Revision: 0.78 $